createdAt,value
2022-11-12T00:01:33.466Z,2.85
2022-11-12T00:04:37.669Z,4.32
2022-11-12T00:07:42.690Z,3.08
2022-11-12T00:10:47.277Z,4.20
2022-11-12T00:13:51.700Z,2.92
2022-11-12T00:16:55.941Z,4.15
2022-11-12T00:20:00.248Z,2.60
2022-11-12T00:23:04.808Z,1.52
2022-11-12T00:26:09.293Z,1.10
2022-11-12T00:29:13.483Z,2.45
2022-11-12T00:32:18.287Z,0.75
2022-11-12T00:35:22.447Z,0.98
2022-11-12T00:38:26.989Z,0.73
2022-11-12T00:41:31.463Z,2.53
2022-11-12T00:44:35.562Z,1.50
2022-11-12T00:47:39.980Z,2.75
2022-11-12T00:50:44.279Z,3.95
2022-11-12T00:53:49.342Z,1.63
2022-11-12T00:56:53.641Z,4.38
2022-11-12T00:59:58.157Z,0.73
2022-11-12T01:03:02.459Z,3.03
2022-11-12T01:06:12.846Z,2.28
2022-11-12T01:09:16.867Z,2.08
2022-11-12T01:12:21.270Z,4.25
2022-11-12T01:15:25.873Z,0.52
2022-11-12T01:18:30.429Z,4.63
2022-11-12T01:21:39.516Z,4.15
2022-11-12T01:24:43.612Z,1.45
2022-11-12T01:27:47.855Z,7.82
2022-11-12T01:30:52.083Z,3.33
2022-11-12T01:34:00.465Z,6.25
2022-11-12T01:37:05.045Z,3.08
2022-11-12T01:40:10.555Z,2.50
2022-11-12T01:43:14.951Z,2.90
2022-11-12T01:46:28.043Z,4.85
2022-11-12T01:49:39.718Z,11.52
2022-11-12T01:52:49.926Z,3.10
2022-11-12T01:55:56.068Z,8.23
2022-11-12T01:59:17.298Z,1.40
2022-11-12T02:02:21.736Z,2.70
2022-11-12T02:05:28.120Z,2.83
2022-11-12T02:08:33.516Z,1.38
2022-11-12T02:11:38.038Z,2.95
2022-11-12T02:14:42.427Z,4.30
2022-11-12T02:17:46.739Z,3.45
2022-11-12T02:20:57.257Z,5.18
2022-11-12T02:24:26.084Z,1.17
2022-11-12T02:27:30.506Z,4.03
2022-11-12T02:30:39.350Z,6.22
2022-11-12T02:33:43.562Z,2.13
2022-11-12T02:36:47.607Z,3.95
2022-11-12T02:39:51.728Z,4.80
2022-11-12T02:42:56.217Z,1.50
2022-11-12T02:46:00.733Z,1.65
2022-11-12T02:49:05.110Z,6.15
2022-11-12T02:52:09.085Z,3.20
2022-11-12T02:55:13.562Z,3.38
2022-11-12T02:58:17.592Z,3.70
2022-11-12T03:01:21.885Z,1.40
2022-11-12T03:04:26.105Z,0.73
2022-11-12T03:07:30.252Z,3.33
2022-11-12T03:10:38.198Z,2.67
2022-11-12T03:13:42.934Z,1.88
2022-11-12T03:16:47.386Z,2.72
2022-11-12T03:19:51.778Z,10.10
2022-11-12T03:23:03.388Z,6.88
2022-11-12T03:26:07.973Z,6.72
2022-11-12T03:29:12.618Z,4.38
2022-11-12T03:32:17.284Z,3.08
2022-11-12T03:35:22.577Z,4.60
2022-11-12T03:38:27.277Z,4.47
2022-11-12T03:41:31.783Z,3.00
2022-11-12T03:44:36.185Z,7.32
2022-11-12T03:47:45.832Z,6.28
2022-11-12T03:50:50.222Z,3.80
2022-11-12T03:53:54.303Z,8.27
2022-11-12T03:56:58.692Z,11.82
2022-11-12T04:00:03.722Z,7.10
2022-11-12T04:03:07.932Z,7.57
2022-11-12T04:06:30.917Z,4.47
2022-11-12T04:09:35.312Z,8.05
2022-11-12T04:12:58.120Z,8.77
2022-11-12T04:16:31.728Z,3.70
2022-11-12T04:19:59.238Z,3.92
2022-11-12T04:23:03.581Z,6.20
2022-11-12T04:26:25.539Z,10.32
2022-11-12T04:29:48.634Z,13.90
2022-11-12T04:32:54.832Z,7.78
2022-11-12T04:35:59.284Z,9.63
2022-11-12T04:39:03.510Z,7.82
2022-11-12T04:42:27.906Z,8.70
2022-11-12T04:45:32.459Z,8.40
2022-11-12T04:48:36.690Z,10.70
2022-11-12T04:51:59.356Z,9.05
2022-11-12T04:55:04.555Z,14.45
2022-11-12T04:58:09.290Z,13.55
2022-11-12T05:01:13.997Z,3.78
2022-11-12T05:04:18.927Z,4.20
2022-11-12T05:07:23.233Z,13.45
2022-11-12T05:10:27.405Z,7.88
2022-11-12T05:13:31.508Z,8.85
2022-11-12T05:16:35.949Z,12.05
2022-11-12T05:19:40.543Z,15.75
2022-11-12T05:22:59.166Z,14.05
2022-11-12T05:26:09.343Z,9.02
2022-11-12T05:29:14.555Z,15.43
2022-11-12T05:32:18.872Z,10.55
2022-11-12T05:35:23.122Z,5.60
2022-11-12T05:38:27.774Z,5.25
2022-11-12T05:41:51.062Z,4.57
2022-11-12T05:44:56.572Z,15.65
2022-11-12T05:48:01.052Z,10.35
2022-11-12T05:51:12.894Z,13.23
2022-11-12T05:54:18.535Z,6.35
2022-11-12T05:57:22.980Z,11.98
2022-11-12T06:00:27.134Z,6.60
2022-11-12T06:03:31.567Z,9.75
2022-11-12T06:06:35.615Z,8.95
2022-11-12T06:09:40.081Z,6.00
2022-11-12T06:12:44.341Z,7.82
2022-11-12T06:15:48.591Z,12.65
2022-11-12T06:18:52.803Z,11.38
2022-11-12T06:21:57.023Z,7.95
2022-11-12T06:25:01.448Z,15.40
2022-11-12T06:28:05.926Z,6.93
2022-11-12T06:31:10.193Z,9.02
2022-11-12T06:34:14.923Z,11.35
2022-11-12T06:37:21.794Z,10.98
2022-11-12T06:40:26.194Z,10.38
2022-11-12T06:43:32.742Z,6.75
2022-11-12T06:46:37.377Z,6.95
2022-11-12T06:49:41.606Z,6.05
2022-11-12T06:52:46.028Z,8.05
2022-11-12T06:55:50.690Z,7.95
2022-11-12T06:58:55.093Z,10.30
2022-11-12T07:01:59.521Z,4.65
2022-11-12T07:05:04.044Z,9.32
2022-11-12T07:08:08.768Z,17.83
2022-11-12T07:11:14.004Z,12.65
2022-11-12T07:14:18.605Z,9.02
2022-11-12T07:17:23.173Z,6.95
2022-11-12T07:20:27.455Z,3.60
2022-11-12T07:23:33.303Z,8.10
2022-11-12T07:26:37.626Z,10.15
2022-11-12T07:29:48.212Z,10.98
2022-11-12T07:32:53.230Z,5.82
2022-11-12T07:36:01.778Z,5.75
2022-11-12T07:39:05.979Z,4.25
2022-11-12T07:42:10.288Z,11.57
2022-11-12T07:45:14.420Z,13.60
2022-11-12T07:48:18.867Z,18.25
2022-11-12T07:51:25.747Z,13.35
2022-11-12T07:54:30.348Z,5.95
2022-11-12T07:57:34.433Z,7.95
2022-11-12T08:00:38.620Z,7.07
2022-11-12T08:03:42.709Z,15.13
2022-11-12T08:06:46.958Z,17.20
2022-11-12T08:09:50.868Z,10.07
2022-11-12T08:12:56.759Z,11.95
2022-11-12T08:16:01.241Z,16.20
2022-11-12T08:19:05.376Z,12.88
2022-11-12T08:22:09.539Z,9.68
2022-11-12T08:25:14.115Z,7.43
2022-11-12T08:28:18.393Z,11.75
2022-11-12T08:31:23.617Z,10.20
2022-11-12T08:34:27.943Z,6.15
2022-11-12T08:37:32.323Z,10.85
2022-11-12T08:40:37.479Z,7.82
2022-11-12T08:43:42.332Z,14.43
2022-11-12T08:46:46.413Z,14.32
2022-11-12T08:49:50.724Z,10.82
2022-11-12T08:53:00.615Z,8.63
2022-11-12T08:56:05.031Z,7.50
2022-11-12T08:59:09.718Z,13.77
2022-11-12T09:02:14.090Z,20.17
2022-11-12T09:05:18.625Z,10.70
2022-11-12T09:08:25.839Z,8.60
2022-11-12T09:11:30.312Z,9.45
2022-11-12T09:14:34.787Z,11.70
2022-11-12T09:17:39.232Z,10.13
2022-11-12T09:20:43.882Z,10.00
2022-11-12T09:23:48.431Z,12.32
2022-11-12T09:26:54.042Z,8.85
2022-11-12T09:29:58.529Z,6.28
2022-11-12T09:33:03.124Z,6.15
2022-11-12T09:36:07.810Z,7.07
2022-11-12T09:39:12.190Z,7.10
2022-11-12T09:42:19.627Z,7.40
2022-11-12T09:45:30.160Z,7.57
2022-11-12T09:48:41.126Z,5.57
2022-11-12T09:52:03.253Z,6.88
2022-11-12T09:55:22.556Z,6.15
2022-11-12T09:58:27.945Z,9.57
2022-11-12T10:01:50.853Z,11.52
2022-11-12T10:05:13.279Z,6.32
2022-11-12T10:08:29.076Z,9.07
2022-11-12T10:12:04.785Z,11.80
2022-11-12T10:15:40.049Z,11.68
2022-11-12T10:18:44.030Z,8.45
2022-11-12T10:22:03.050Z,7.80
2022-11-12T10:25:15.767Z,19.33
2022-11-12T10:28:46.314Z,5.90
2022-11-12T10:31:50.676Z,11.77
2022-11-12T10:34:55.247Z,7.95
2022-11-12T10:38:03.010Z,7.32
2022-11-12T10:41:25.656Z,10.18
2022-11-12T10:44:29.842Z,3.85
2022-11-12T10:47:42.988Z,16.20
2022-11-12T10:50:47.332Z,6.68
2022-11-12T10:53:51.754Z,9.30
2022-11-12T10:56:56.458Z,7.50
2022-11-12T11:00:13.480Z,7.63
2022-11-12T11:03:22.948Z,6.18
2022-11-12T11:06:27.344Z,8.43
2022-11-12T11:09:32.411Z,9.25
2022-11-12T11:12:36.666Z,10.70
2022-11-12T11:15:41.007Z,5.65
2022-11-12T11:19:05.851Z,7.10
2022-11-12T11:22:30.540Z,10.10
2022-11-12T11:25:36.173Z,8.73
2022-11-12T11:28:52.977Z,8.23
2022-11-12T11:32:19.937Z,4.20
2022-11-12T11:35:47.124Z,4.43
2022-11-12T11:39:18.142Z,8.93
2022-11-12T11:43:02.882Z,4.47
2022-11-12T11:46:07.326Z,8.30
2022-11-12T11:49:26.846Z,8.55
2022-11-12T11:52:40.030Z,9.45
2022-11-12T11:56:04.009Z,6.15
2022-11-12T11:59:24.252Z,4.85
2022-11-12T12:02:47.054Z,6.93
2022-11-12T12:06:09.970Z,7.53
2022-11-12T12:09:18.036Z,1.65
2022-11-12T12:12:55.654Z,8.15
2022-11-12T12:16:26.831Z,8.13
2022-11-12T12:19:57.180Z,10.07
2022-11-12T12:23:23.534Z,10.98
2022-11-12T12:26:42.458Z,8.98
2022-11-12T12:30:00.782Z,7.30
2022-11-12T12:33:28.246Z,5.70
2022-11-12T12:36:38.818Z,9.05
2022-11-12T12:39:59.840Z,5.60
2022-11-12T12:43:26.519Z,6.30
2022-11-12T12:46:37.037Z,9.27
2022-11-12T12:49:43.057Z,11.90
2022-11-12T12:53:06.239Z,9.95
2022-11-12T12:56:10.829Z,7.53
2022-11-12T12:59:23.891Z,7.75
2022-11-12T13:02:28.369Z,13.18
2022-11-12T13:05:37.823Z,8.27
2022-11-12T13:08:42.509Z,8.57
2022-11-12T13:12:04.382Z,8.77
2022-11-12T13:15:16.378Z,8.10
2022-11-12T13:18:39.679Z,10.38
2022-11-12T13:21:44.588Z,6.20
2022-11-12T13:25:10.670Z,11.60
2022-11-12T13:28:15.010Z,6.30
2022-11-12T13:31:29.519Z,10.27
2022-11-12T13:34:34.304Z,14.93
2022-11-12T13:38:03.926Z,11.18
2022-11-12T13:41:11.255Z,11.05
2022-11-12T13:44:17.623Z,12.85
2022-11-12T13:47:24.855Z,10.82
2022-11-12T13:50:29.072Z,15.65
2022-11-12T13:53:33.902Z,14.50
2022-11-12T13:56:39.209Z,13.73
2022-11-12T13:59:43.630Z,13.73
2022-11-12T14:02:55.735Z,19.75
2022-11-12T14:06:06.346Z,7.63
2022-11-12T14:09:44.545Z,8.63
2022-11-12T14:13:20.765Z,15.07
2022-11-12T14:16:31.567Z,11.63
2022-11-12T14:19:57.497Z,18.45
2022-11-12T14:23:13.499Z,18.42
2022-11-12T14:26:53.496Z,19.23
2022-11-12T14:30:32.528Z,14.13
2022-11-12T14:33:36.991Z,11.43
2022-11-12T14:36:41.354Z,13.82
2022-11-12T14:39:46.150Z,15.65
2022-11-12T14:42:51.956Z,15.75
2022-11-12T14:45:59.397Z,10.93
2022-11-12T14:49:16.057Z,14.10
2022-11-12T14:52:25.088Z,13.15
2022-11-12T14:55:33.970Z,8.82
2022-11-12T14:58:40.743Z,11.07
2022-11-12T15:05:28.515Z,11.27
2022-11-12T15:08:40.745Z,15.25
2022-11-12T15:11:49.660Z,5.63
2022-11-12T15:15:03.601Z,14.77
2022-11-12T15:18:19.322Z,14.98
2022-11-12T15:21:28.474Z,9.75
2022-11-12T15:24:37.756Z,15.48
2022-11-12T15:27:43.306Z,10.07
2022-11-12T15:31:02.600Z,11.82
2022-11-12T15:34:34.389Z,8.50
2022-11-12T15:37:43.136Z,9.88
2022-11-12T15:40:57.321Z,7.82
2022-11-12T15:44:02.126Z,7.53
2022-11-12T15:47:08.708Z,7.55
2022-11-12T15:50:22.772Z,9.35
2022-11-12T15:53:28.820Z,11.38
2022-11-12T15:56:33.899Z,9.00
2022-11-12T15:59:37.842Z,8.95
2022-11-12T16:02:43.428Z,18.38
2022-11-12T16:05:51.389Z,11.82
2022-11-12T16:08:55.257Z,4.25
2022-11-12T16:12:00.887Z,6.28
2022-11-12T16:15:16.642Z,16.95
2022-11-12T16:18:20.675Z,11.68
2022-11-12T16:21:24.900Z,11.60
2022-11-12T16:24:29.284Z,13.85
2022-11-12T16:27:33.829Z,8.13
2022-11-12T16:30:38.553Z,11.15
2022-11-12T16:33:42.760Z,9.38
2022-11-12T16:36:47.725Z,6.93
2022-11-12T16:39:52.174Z,15.35
2022-11-12T16:42:56.887Z,9.15
2022-11-12T16:46:01.216Z,10.02
2022-11-12T16:49:05.379Z,8.80
2022-11-12T16:52:10.686Z,8.25
2022-11-12T16:55:15.657Z,14.23
2022-11-12T16:58:19.708Z,11.43
2022-11-12T17:01:27.280Z,7.50
2022-11-12T17:04:31.807Z,7.68
2022-11-12T17:07:36.149Z,13.70
2022-11-12T17:10:40.227Z,12.20
2022-11-12T17:13:44.498Z,9.60
2022-11-12T17:16:48.950Z,7.13
2022-11-12T17:19:53.275Z,12.60
2022-11-12T17:22:58.162Z,10.77
2022-11-12T17:26:04.846Z,14.00
2022-11-12T17:29:09.389Z,14.10
2022-11-12T17:32:13.672Z,15.57
2022-11-12T17:35:18.136Z,11.13
2022-11-12T17:38:22.533Z,10.15
2022-11-12T17:41:28.871Z,15.27
2022-11-12T17:44:33.264Z,10.23
2022-11-12T17:47:40.477Z,16.85
2022-11-12T17:50:45.543Z,17.88
2022-11-12T17:53:50.735Z,15.20
2022-11-12T17:56:54.973Z,13.80
2022-11-12T17:59:59.236Z,10.45
2022-11-12T18:03:03.519Z,14.95
2022-11-12T18:06:14.635Z,18.70
2022-11-12T18:09:19.147Z,16.88
2022-11-12T18:12:23.500Z,12.70
2022-11-12T18:15:27.801Z,15.60
2022-11-12T18:18:32.061Z,16.15
2022-11-12T18:21:40.492Z,8.52
2022-11-12T18:24:45.073Z,11.40
2022-11-12T18:27:49.974Z,15.85
2022-11-12T18:31:03.425Z,15.43
2022-11-12T18:34:15.176Z,19.92
2022-11-12T18:37:19.542Z,14.55
2022-11-12T18:40:24.330Z,10.82
2022-11-12T18:43:29.530Z,14.48
2022-11-12T18:46:34.298Z,13.48
2022-11-12T18:49:38.311Z,34.63
2022-11-12T18:52:43.555Z,22.38
2022-11-12T18:55:47.691Z,21.63
2022-11-12T18:58:52.149Z,21.67
2022-11-12T19:01:58.227Z,23.58
2022-11-12T19:05:02.440Z,20.65
2022-11-12T19:08:06.879Z,31.27
2022-11-12T19:11:13.833Z,14.85
2022-11-12T19:14:18.082Z,16.20
2022-11-12T19:17:22.168Z,15.18
2022-11-12T19:20:26.553Z,16.52
2022-11-12T19:23:31.145Z,19.95
2022-11-12T19:26:35.616Z,17.27
2022-11-12T19:29:39.985Z,18.13
2022-11-12T19:32:44.459Z,15.90
2022-11-12T19:35:48.883Z,22.02
2022-11-12T19:38:55.294Z,22.65
2022-11-12T19:41:59.505Z,19.77
2022-11-12T19:45:04.740Z,19.90
2022-11-12T19:48:08.979Z,15.55
2022-11-12T19:51:14.074Z,20.35
2022-11-12T19:54:18.738Z,23.98
2022-11-12T19:57:23.458Z,22.65
2022-11-12T20:00:27.385Z,19.83
2022-11-12T20:03:32.299Z,23.33
2022-11-12T20:06:36.722Z,16.13
2022-11-12T20:09:41.118Z,15.52
2022-11-12T20:12:45.880Z,27.77
2022-11-12T20:15:50.244Z,24.23
2022-11-12T20:18:55.740Z,22.48
2022-11-12T20:22:00.212Z,18.40
2022-11-12T20:25:04.837Z,19.15
2022-11-12T20:28:09.803Z,19.65
2022-11-12T20:31:22.090Z,15.88
2022-11-12T20:34:27.303Z,21.45
2022-11-12T20:37:31.451Z,16.63
2022-11-12T20:40:35.747Z,26.30
2022-11-12T20:43:40.284Z,34.38
2022-11-12T20:46:44.849Z,31.55
2022-11-12T20:49:49.349Z,28.20
2022-11-12T20:52:53.735Z,26.83
2022-11-12T20:56:05.708Z,25.55
2022-11-12T20:59:11.080Z,23.75
2022-11-12T21:02:15.167Z,20.58
2022-11-12T21:05:19.455Z,32.03
2022-11-12T21:08:23.677Z,29.88
2022-11-12T21:11:27.998Z,22.92
2022-11-12T21:14:32.546Z,25.23
2022-11-12T21:17:36.916Z,25.05
2022-11-12T21:20:41.128Z,26.58
2022-11-12T21:23:45.838Z,32.35
2022-11-12T21:26:50.476Z,21.45
2022-11-12T21:29:54.953Z,30.08
2022-11-12T21:32:59.713Z,33.60
2022-11-12T21:36:06.033Z,52.30
2022-11-12T21:39:12.057Z,36.47
2022-11-12T21:42:16.517Z,30.42
2022-11-12T21:45:20.809Z,20.75
2022-11-12T21:48:25.618Z,29.80
2022-11-12T21:51:33.005Z,22.90
2022-11-12T21:54:37.779Z,25.85
2022-11-12T21:57:42.342Z,31.73
2022-11-12T22:00:46.650Z,17.52
2022-11-12T22:03:53.174Z,16.33
2022-11-12T22:06:57.164Z,18.30
2022-11-12T22:10:01.374Z,20.35
2022-11-12T22:13:25.978Z,28.08
2022-11-12T22:16:30.157Z,21.92
2022-11-12T22:19:34.961Z,25.17
2022-11-12T22:22:39.217Z,25.38
2022-11-12T22:25:43.463Z,22.65
2022-11-12T22:28:48.888Z,10.75
2022-11-12T22:31:53.297Z,16.27
2022-11-12T22:34:57.741Z,15.18
2022-11-12T22:38:02.059Z,13.93
2022-11-12T22:41:08.865Z,22.65
2022-11-12T22:44:13.017Z,14.02
2022-11-12T22:47:17.667Z,18.85
2022-11-12T22:50:22.147Z,17.42
2022-11-12T22:53:27.116Z,20.67
2022-11-12T22:56:34.993Z,15.05
2022-11-12T22:59:39.112Z,21.08
2022-11-12T23:02:47.417Z,23.52
2022-11-12T23:06:03.389Z,10.70
2022-11-12T23:09:08.022Z,22.17
2022-11-12T23:12:12.327Z,15.52
2022-11-12T23:15:16.580Z,17.13
2022-11-12T23:18:20.846Z,15.50
2022-11-12T23:21:27.926Z,12.68
2022-11-12T23:24:32.448Z,15.02
2022-11-12T23:27:37.868Z,18.33
2022-11-12T23:30:50.332Z,17.88
2022-11-12T23:33:57.315Z,11.88
2022-11-12T23:37:01.660Z,19.90
2022-11-12T23:40:06.989Z,17.45
2022-11-12T23:43:10.945Z,18.48
2022-11-12T23:46:15.632Z,17.75
2022-11-12T23:49:19.831Z,21.25
2022-11-12T23:52:24.308Z,14.55
2022-11-12T23:55:29.522Z,14.38
2022-11-12T23:58:33.770Z,16.48
